Time;durP1;ratioP1;P1;durP2;ratioP2;P2;SDS_P1;SDS_P2;PMS_P1;PMS_P2;Temp;Humidity;BMP_temperature;BMP_pressure;BME280_temperature;BME280_humidity;BME280_pressure;Samples;Min_cycle;Max_cycle;Signal;HPM_P1;HPM_P2
2021/01/31 00:01:10;;;;;;;241.85;219.95;;;;;;;;;;4980351;28;20069;-82
2021/01/31 00:03:35;;;;;;;244.00;222.13;;;;;;;;;;4981909;28;20111;-81
2021/01/31 00:06:04;;;;;;;248.00;224.45;;;;;;;;;;4981319;28;20042;-81
2021/01/31 00:08:31;;;;;;;252.15;229.52;;;;;;;;;;4981629;28;20029;-81
2021/01/31 00:10:57;;;;;;;245.50;223.52;;;;;;;;;;4980391;28;20046;-81
2021/01/31 00:13:24;;;;;;;250.00;227.55;;;;;;;;;;4980120;28;20023;-81
2021/01/31 00:15:50;;;;;;;247.32;225.30;;;;;;;;;;4985569;28;20117;-81
2021/01/31 00:18:16;;;;;;;250.50;227.90;;;;;;;;;;4979388;28;20098;-81
2021/01/31 00:20:46;;;;;;;255.60;232.68;;;;;;;;;;4982358;28;20470;-81
2021/01/31 00:23:11;;;;;;;252.13;229.40;;;;;;;;;;4980837;28;20030;-81
2021/01/31 00:25:37;;;;;;;256.88;232.60;;;;;;;;;;4984403;28;20383;-81
2021/01/31 00:28:03;;;;;;;251.80;228.68;;;;;;;;;;4986729;28;20057;-81
2021/01/31 00:30:32;;;;;;;245.40;222.68;;;;;;;;;;4981459;28;20065;-81
2021/01/31 00:32:57;;;;;;;247.10;225.00;;;;;;;;;;4981029;28;20057;-81
2021/01/31 00:35:28;;;;;;;249.13;226.63;;;;;;;;;;4982908;28;20034;-81
2021/01/31 00:37:54;;;;;;;254.40;231.85;;;;;;;;;;4980695;28;20030;-81
2021/01/31 00:40:19;;;;;;;251.80;228.95;;;;;;;;;;4982400;28;20073;-82
2021/01/31 00:42:45;;;;;;;256.63;233.38;;;;;;;;;;4978515;28;20501;-80
2021/01/31 00:45:12;;;;;;;254.95;230.48;;;;;;;;;;4979283;28;20118;-81
2021/01/31 00:47:39;;;;;;;256.33;232.70;;;;;;;;;;4977408;28;20058;-81
2021/01/31 00:50:05;;;;;;;254.25;231.40;;;;;;;;;;4994850;28;20129;-80
2021/01/31 00:52:30;;;;;;;257.83;234.25;;;;;;;;;;4978017;28;20430;-81
2021/01/31 00:54:55;;;;;;;258.92;235.75;;;;;;;;;;4979522;28;20537;-81
2021/01/31 00:57:21;;;;;;;264.25;240.45;;;;;;;;;;4989732;28;20118;-82
2021/01/31 00:59:47;;;;;;;263.80;239.65;;;;;;;;;;4980260;28;20551;-81
2021/01/31 01:02:15;;;;;;;270.00;245.07;;;;;;;;;;4994200;28;20019;-81
2021/01/31 01:04:44;;;;;;;265.75;241.75;;;;;;;;;;4983760;28;20457;-81
2021/01/31 01:07:10;;;;;;;256.70;233.63;;;;;;;;;;4981845;28;20034;-77
2021/01/31 01:09:35;;;;;;;259.65;236.00;;;;;;;;;;4984961;28;20030;-77
2021/01/31 01:12:00;;;;;;;263.13;239.07;;;;;;;;;;4984197;28;20101;-76
2021/01/31 01:14:26;;;;;;;276.10;250.40;;;;;;;;;;4980565;28;20022;-76
2021/01/31 01:16:51;;;;;;;270.60;245.77;;;;;;;;;;4986837;28;20066;-76
2021/01/31 01:19:17;;;;;;;272.95;248.02;;;;;;;;;;4977740;28;20013;-77
2021/01/31 01:21:42;;;;;;;261.60;238.07;;;;;;;;;;4982251;28;20130;-76
2021/01/31 01:24:08;;;;;;;264.38;240.48;;;;;;;;;;4978300;28;20022;-76
2021/01/31 01:26:33;;;;;;;264.35;240.55;;;;;;;;;;4988858;28;20080;-76
2021/01/31 01:28:58;;;;;;;259.20;234.88;;;;;;;;;;4981696;28;20026;-76
2021/01/31 01:31:24;;;;;;;258.90;235.77;;;;;;;;;;4981126;28;20062;-76
2021/01/31 01:33:50;;;;;;;262.23;238.75;;;;;;;;;;4982690;28;20818;-76
2021/01/31 01:36:16;;;;;;;261.88;238.43;;;;;;;;;;4981541;28;20438;-76
2021/01/31 01:38:41;;;;;;;268.05;242.98;;;;;;;;;;4979246;28;20041;-76
2021/01/31 01:41:07;;;;;;;264.75;240.73;;;;;;;;;;4978577;28;20081;-76
2021/01/31 01:43:32;;;;;;;259.65;236.15;;;;;;;;;;4981584;28;20025;-77
2021/01/31 01:46:03;;;;;;;266.15;241.80;;;;;;;;;;4982391;28;20042;-76
2021/01/31 01:48:29;;;;;;;268.75;244.07;;;;;;;;;;4984542;28;20093;-76
2021/01/31 01:50:54;;;;;;;262.25;238.30;;;;;;;;;;4989212;28;20062;-76
2021/01/31 01:53:22;;;;;;;260.77;236.23;;;;;;;;;;4983230;28;20066;-76
2021/01/31 01:56:01;;;;;;;262.45;238.82;;;;;;;;;;4979808;28;20394;-76
2021/01/31 01:58:26;;;;;;;253.88;230.35;;;;;;;;;;4976370;28;20474;-76
2021/01/31 02:00:52;;;;;;;256.48;233.18;;;;;;;;;;4975869;28;20076;-76
2021/01/31 02:03:18;;;;;;;254.90;232.05;;;;;;;;;;4984500;28;20394;-76
2021/01/31 02:05:47;;;;;;;246.45;224.05;;;;;;;;;;4979522;28;20084;-76
2021/01/31 02:08:13;;;;;;;245.73;223.73;;;;;;;;;;4985270;28;20371;-76
2021/01/31 02:10:39;;;;;;;242.73;221.73;;;;;;;;;;4976651;28;20030;-76
2021/01/31 02:13:05;;;;;;;244.23;223.30;;;;;;;;;;4979878;28;20034;-76
2021/01/31 02:15:30;;;;;;;248.90;227.32;;;;;;;;;;4984514;28;20026;-76
2021/01/31 02:18:02;;;;;;;248.70;227.55;;;;;;;;;;4980595;28;20034;-76
2021/01/31 02:20:46;;;;;;;257.15;235.00;;;;;;;;;;4981141;28;20033;-76
2021/01/31 02:23:23;;;;;;;251.60;229.35;;;;;;;;;;4981083;28;20125;-77
2021/01/31 02:25:58;;;;;;;252.07;229.98;;;;;;;;;;4978799;28;20077;-77
2021/01/31 02:28:26;;;;;;;246.07;224.60;;;;;;;;;;4980521;28;20026;-77
2021/01/31 02:30:58;;;;;;;249.10;227.05;;;;;;;;;;4979843;28;20030;-76
2021/01/31 02:33:26;;;;;;;245.40;222.70;;;;;;;;;;4977523;28;20549;-76
2021/01/31 02:35:57;;;;;;;247.73;225.18;;;;;;;;;;4997635;28;20034;-77
2021/01/31 02:38:27;;;;;;;258.27;234.52;;;;;;;;;;4977653;28;20053;-77
2021/01/31 02:40:56;;;;;;;253.73;230.57;;;;;;;;;;4983880;28;20046;-77
2021/01/31 02:43:32;;;;;;;262.20;236.95;;;;;;;;;;4986792;28;20055;-77
2021/01/31 02:45:57;;;;;;;;;;;;;;;;;;4997367;28;20041;-77
2021/01/31 02:48:25;;;;;;;251.35;228.82;;;;;;;;;;4979286;28;19910;-77
2021/01/31 02:51:03;;;;;;;256.10;232.25;;;;;;;;;;4981078;28;20077;-77
2021/01/31 02:53:34;;;;;;;252.48;229.48;;;;;;;;;;4977323;28;20034;-77
2021/01/31 02:56:02;;;;;;;262.02;238.15;;;;;;;;;;4981806;28;20038;-79
2021/01/31 02:58:40;;;;;;;268.77;244.30;;;;;;;;;;4986606;28;20019;-78
2021/01/31 03:01:09;;;;;;;261.10;236.70;;;;;;;;;;4987526;28;20061;-78
2021/01/31 03:03:37;;;;;;;250.13;227.05;;;;;;;;;;4987396;28;20430;-78
2021/01/31 03:06:04;;;;;;;257.80;234.35;;;;;;;;;;4987580;28;20035;-78
2021/01/31 03:08:32;;;;;;;258.27;234.73;;;;;;;;;;5001689;28;20371;-78
2021/01/31 03:11:15;;;;;;;253.75;229.80;;;;;;;;;;4987734;28;20062;-78
2021/01/31 03:13:40;;;;;;;255.73;232.23;;;;;;;;;;4988366;28;20049;-78
2021/01/31 03:16:07;;;;;;;249.90;227.02;;;;;;;;;;4990873;28;20496;-78
2021/01/31 03:19:12;;;;;;;256.20;232.13;;;;;;;;;;4985393;28;20054;-78
2021/01/31 03:21:38;;;;;;;267.30;242.63;;;;;;;;;;4947145;29;20067;-79
2021/01/31 03:24:22;;;;;;;257.67;234.48;;;;;;;;;;4949925;29;20023;-78
2021/01/31 03:26:53;;;;;;;250.30;227.35;;;;;;;;;;4973794;28;20038;-77
2021/01/31 03:29:19;;;;;;;248.85;226.18;;;;;;;;;;4984209;28;20035;-77
2021/01/31 03:32:04;;;;;;;254.75;232.05;;;;;;;;;;4988708;28;20541;-77
2021/01/31 03:34:40;;;;;;;258.77;235.07;;;;;;;;;;4984752;28;20505;-77
2021/01/31 03:37:07;;;;;;;248.48;226.25;;;;;;;;;;4981683;28;20030;-78
2021/01/31 03:39:33;;;;;;;252.55;229.57;;;;;;;;;;4996940;28;20113;-77
2021/01/31 03:41:59;;;;;;;255.70;232.48;;;;;;;;;;4981757;28;20035;-77
2021/01/31 03:44:25;;;;;;;252.35;229.75;;;;;;;;;;4973914;28;20060;-78
2021/01/31 03:47:03;;;;;;;252.85;229.63;;;;;;;;;;4978650;28;20053;-78
2021/01/31 03:49:41;;;;;;;257.80;234.85;;;;;;;;;;4977923;28;20042;-78
2021/01/31 03:52:07;;;;;;;261.70;238.07;;;;;;;;;;4980428;28;20049;-77
2021/01/31 03:54:32;;;;;;;259.65;235.82;;;;;;;;;;4983651;28;20038;-77
2021/01/31 03:57:03;;;;;;;270.58;246.40;;;;;;;;;;4977890;28;20038;-78
2021/01/31 03:59:34;;;;;;;265.70;241.18;;;;;;;;;;4975914;28;20042;-78
2021/01/31 04:02:00;;;;;;;272.10;246.30;;;;;;;;;;4980658;28;20031;-77
2021/01/31 04:04:29;;;;;;;276.23;250.82;;;;;;;;;;4979847;28;20374;-77
2021/01/31 04:06:56;;;;;;;277.85;251.32;;;;;;;;;;4984505;28;20129;-77
2021/01/31 04:09:21;;;;;;;278.88;253.20;;;;;;;;;;4981644;28;20031;-77
2021/01/31 04:11:47;;;;;;;286.13;260.13;;;;;;;;;;4985146;28;20045;-78
2021/01/31 04:14:18;;;;;;;282.63;256.48;;;;;;;;;;4982509;28;20089;-78
2021/01/31 04:16:45;;;;;;;281.48;254.73;;;;;;;;;;4989410;28;20049;-78
2021/01/31 04:19:11;;;;;;;278.55;252.60;;;;;;;;;;4985994;28;20061;-78
2021/01/31 04:21:37;;;;;;;275.02;248.55;;;;;;;;;;4984667;28;20648;-78
2021/01/31 04:24:03;;;;;;;284.05;257.25;;;;;;;;;;4984590;28;20033;-78
2021/01/31 04:26:28;;;;;;;281.63;255.60;;;;;;;;;;4983169;28;20035;-78
2021/01/31 04:28:53;;;;;;;277.60;252.18;;;;;;;;;;4978342;28;20022;-78
2021/01/31 04:31:19;;;;;;;274.55;248.95;;;;;;;;;;4979638;28;20050;-77
2021/01/31 04:33:44;;;;;;;287.27;261.20;;;;;;;;;;4983328;28;20113;-78
2021/01/31 04:36:10;;;;;;;278.10;252.85;;;;;;;;;;4981422;28;20044;-79
2021/01/31 04:38:35;;;;;;;278.30;253.35;;;;;;;;;;4990063;28;20031;-78
2021/01/31 04:41:00;;;;;;;273.77;248.68;;;;;;;;;;4990668;28;20177;-77
2021/01/31 04:43:26;;;;;;;279.98;253.65;;;;;;;;;;4981247;28;20022;-77
2021/01/31 04:45:53;;;;;;;284.58;257.63;;;;;;;;;;4979885;28;20104;-78
2021/01/31 04:48:37;;;;;;;272.75;248.05;;;;;;;;;;4985257;28;20077;-78
2021/01/31 04:51:21;;;;;;;269.20;244.30;;;;;;;;;;4983869;28;20153;-78
2021/01/31 04:53:59;;;;;;;271.48;246.23;;;;;;;;;;4984037;28;20482;-78
2021/01/31 04:56:39;;;;;;;266.60;242.70;;;;;;;;;;4983346;28;20031;-78
2021/01/31 04:59:08;;;;;;;279.38;254.65;;;;;;;;;;4983608;28;20371;-79
2021/01/31 05:01:34;;;;;;;273.92;249.25;;;;;;;;;;4987392;28;20034;-78
2021/01/31 05:04:07;;;;;;;266.75;242.85;;;;;;;;;;4986058;28;20034;-78
2021/01/31 05:06:37;;;;;;;274.92;250.60;;;;;;;;;;4981875;28;20118;-77
2021/01/31 05:09:04;;;;;;;276.45;252.32;;;;;;;;;;4983741;28;20061;-78
2021/01/31 05:11:35;;;;;;;280.73;255.80;;;;;;;;;;4983557;28;20042;-77
2021/01/31 05:14:12;;;;;;;273.85;248.07;;;;;;;;;;4976678;28;20039;-78
2021/01/31 05:16:38;;;;;;;276.42;251.68;;;;;;;;;;4986433;28;20438;-78
2021/01/31 05:19:05;;;;;;;274.38;248.82;;;;;;;;;;4979931;28;20019;-78
2021/01/31 05:21:32;;;;;;;266.73;241.52;;;;;;;;;;4986173;28;20041;-78
2021/01/31 05:23:59;;;;;;;276.40;250.65;;;;;;;;;;4985979;28;20022;-79
2021/01/31 05:26:25;;;;;;;279.45;253.75;;;;;;;;;;4988573;28;20039;-78
2021/01/31 05:28:55;;;;;;;275.75;250.55;;;;;;;;;;4982124;28;20089;-78
2021/01/31 05:31:22;;;;;;;281.13;255.23;;;;;;;;;;4976120;28;20085;-78
2021/01/31 05:33:52;;;;;;;276.15;250.80;;;;;;;;;;4973836;28;20022;-78
2021/01/31 05:36:18;;;;;;;264.85;239.95;;;;;;;;;;4989469;28;20446;-78
2021/01/31 05:38:45;;;;;;;273.98;249.18;;;;;;;;;;4986954;28;20053;-78
2021/01/31 05:41:31;;;;;;;267.75;242.93;;;;;;;;;;4987212;28;20584;-78
2021/01/31 05:43:57;;;;;;;272.50;247.65;;;;;;;;;;4978549;28;20034;-77
2021/01/31 05:46:36;;;;;;;271.08;246.27;;;;;;;;;;4983141;28;20370;-78
2021/01/31 05:49:02;;;;;;;273.50;248.20;;;;;;;;;;4980111;28;20022;-77
2021/01/31 05:51:31;;;;;;;284.98;258.90;;;;;;;;;;4980561;28;20043;-77
2021/01/31 05:53:57;;;;;;;285.70;260.15;;;;;;;;;;4988332;28;20101;-78
2021/01/31 05:56:25;;;;;;;278.58;253.60;;;;;;;;;;4987671;28;20030;-78
2021/01/31 05:58:51;;;;;;;273.58;248.38;;;;;;;;;;4980525;28;20023;-78
2021/01/31 06:01:17;;;;;;;282.33;255.07;;;;;;;;;;4982821;28;20486;-77
2021/01/31 06:03:42;;;;;;;275.55;249.38;;;;;;;;;;4985287;28;20045;-78
2021/01/31 06:06:08;;;;;;;278.25;252.57;;;;;;;;;;4979804;28;20019;-78
2021/01/31 06:08:34;;;;;;;279.13;253.45;;;;;;;;;;4985388;28;20062;-78
2021/01/31 06:11:02;;;;;;;289.33;263.10;;;;;;;;;;4988296;28;20069;-77
2021/01/31 06:13:28;;;;;;;275.48;249.77;;;;;;;;;;4987776;28;20120;-77
2021/01/31 06:15:55;;;;;;;280.58;254.50;;;;;;;;;;4988624;28;20111;-77
2021/01/31 06:18:23;;;;;;;277.45;252.07;;;;;;;;;;4987396;28;20026;-78
2021/01/31 06:20:48;;;;;;;271.67;246.35;;;;;;;;;;4988267;28;20022;-78
2021/01/31 06:23:30;;;;;;;278.77;253.38;;;;;;;;;;4987157;28;20084;-78
2021/01/31 06:25:56;;;;;;;277.23;251.43;;;;;;;;;;4986468;28;20089;-78
2021/01/31 06:28:23;;;;;;;285.25;259.00;;;;;;;;;;4980445;28;20018;-79
2021/01/31 06:31:02;;;;;;;284.83;258.60;;;;;;;;;;4978406;28;20486;-78
2021/01/31 06:33:27;;;;;;;287.48;261.50;;;;;;;;;;4979803;28;20026;-78
2021/01/31 06:36:22;;;;;;;273.13;247.93;;;;;;;;;;4979127;28;20462;-78
2021/01/31 06:39:06;;;;;;;283.50;257.85;;;;;;;;;;4973640;28;20038;-78
2021/01/31 06:41:38;;;;;;;282.10;255.95;;;;;;;;;;5002282;28;20109;-77
2021/01/31 06:44:20;;;;;;;277.05;252.07;;;;;;;;;;4987825;28;20054;-77
2021/01/31 06:47:09;;;;;;;280.77;254.90;;;;;;;;;;4970994;28;20114;-78
2021/01/31 06:49:46;;;;;;;282.23;255.43;;;;;;;;;;4984196;28;20192;-77
2021/01/31 06:52:27;;;;;;;284.30;257.65;;;;;;;;;;4990843;28;20049;-77
2021/01/31 06:54:56;;;;;;;283.95;256.58;;;;;;;;;;4992103;28;20740;-76
2021/01/31 06:57:21;;;;;;;285.95;258.83;;;;;;;;;;4990957;28;20030;-78
2021/01/31 06:59:46;;;;;;;282.38;255.77;;;;;;;;;;4992039;28;20023;-77
2021/01/31 07:02:12;;;;;;;298.35;270.35;;;;;;;;;;4990909;28;20018;-77
2021/01/31 07:04:40;;;;;;;286.55;258.85;;;;;;;;;;4991579;28;20437;-78
2021/01/31 07:07:24;;;;;;;271.80;244.18;;;;;;;;;;4985351;28;20025;-77
2021/01/31 07:09:59;;;;;;;280.70;253.13;;;;;;;;;;4986315;28;20042;-77
2021/01/31 07:12:26;;;;;;;283.45;254.90;;;;;;;;;;4988507;28;20103;-79
2021/01/31 07:15:00;;;;;;;281.88;254.50;;;;;;;;;;4980322;28;20027;-78
2021/01/31 07:17:32;;;;;;;294.02;265.98;;;;;;;;;;4990068;28;20069;-78
2021/01/31 07:19:57;;;;;;;298.77;270.20;;;;;;;;;;4987298;28;20044;-80
2021/01/31 07:22:30;;;;;;;302.60;274.45;;;;;;;;;;4997739;28;20022;-79
2021/01/31 07:25:05;;;;;;;302.38;273.58;;;;;;;;;;4984682;28;20030;-78
2021/01/31 07:27:35;;;;;;;286.88;258.85;;;;;;;;;;4990961;28;20108;-79
2021/01/31 07:30:13;;;;;;;290.73;262.17;;;;;;;;;;4987269;28;20251;-79
2021/01/31 07:32:57;;;;;;;288.35;260.20;;;;;;;;;;4990135;28;20053;-79
2021/01/31 07:35:24;;;;;;;273.27;246.88;;;;;;;;;;4989264;28;20428;-78
2021/01/31 07:37:52;;;;;;;283.85;256.80;;;;;;;;;;4994896;28;20050;-79
2021/01/31 07:40:19;;;;;;;294.20;266.08;;;;;;;;;;4989236;28;20038;-79
2021/01/31 07:42:45;;;;;;;293.33;265.00;;;;;;;;;;4982213;28;20057;-78
2021/01/31 07:45:12;;;;;;;293.58;265.33;;;;;;;;;;4990430;28;20470;-78
2021/01/31 07:47:37;;;;;;;292.52;264.23;;;;;;;;;;4977476;28;20438;-78
2021/01/31 07:50:03;;;;;;;291.25;263.73;;;;;;;;;;4981934;28;20178;-78
2021/01/31 07:52:29;;;;;;;290.00;261.75;;;;;;;;;;4993633;28;20560;-77
2021/01/31 07:55:08;;;;;;;291.85;263.58;;;;;;;;;;4989462;28;20030;-80
2021/01/31 07:57:34;;;;;;;299.35;270.05;;;;;;;;;;4988065;28;20496;-80
2021/01/31 08:00:09;;;;;;;304.17;274.90;;;;;;;;;;4981897;28;20021;-79
2021/01/31 08:02:36;;;;;;;301.70;271.75;;;;;;;;;;4984079;28;20062;-80
2021/01/31 08:05:02;;;;;;;291.08;262.48;;;;;;;;;;4984985;28;20061;-80
2021/01/31 08:07:46;;;;;;;297.25;268.30;;;;;;;;;;4987140;28;20474;-77
2021/01/31 08:10:32;;;;;;;1999.90;999.90;;;;;;;;;;4989049;28;20069;-77
2021/01/31 08:12:59;;;;;;;329.40;297.45;;;;;;;;;;4984152;28;20089;-77
2021/01/31 08:15:31;;;;;;;1999.90;999.90;;;;;;;;;;4992124;28;20018;-76
2021/01/31 08:17:56;;;;;;;1999.90;999.90;;;;;;;;;;4992346;28;20122;-76
2021/01/31 08:20:22;;;;;;;1999.90;999.90;;;;;;;;;;4991661;28;20101;-75
2021/01/31 08:22:48;;;;;;;1999.90;999.90;;;;;;;;;;4990160;28;20466;-77
2021/01/31 08:25:13;;;;;;;1999.90;999.90;;;;;;;;;;4989678;28;20022;-76
2021/01/31 08:27:42;;;;;;;1999.90;999.90;;;;;;;;;;4994742;28;20034;-75
2021/01/31 08:30:13;;;;;;;1999.90;999.90;;;;;;;;;;4989783;28;20057;-77
2021/01/31 08:32:57;;;;;;;1999.90;999.90;;;;;;;;;;4990230;28;20033;-77
2021/01/31 08:35:24;;;;;;;1999.90;999.90;;;;;;;;;;4992146;28;20054;-76
2021/01/31 08:37:52;;;;;;;1999.90;999.90;;;;;;;;;;4986822;28;20034;-76
2021/01/31 08:40:19;;;;;;;1999.90;999.90;;;;;;;;;;4991597;28;20409;-75
2021/01/31 08:42:52;;;;;;;1999.90;999.90;;;;;;;;;;5011144;28;20025;-77
2021/01/31 08:45:17;;;;;;;1999.90;999.90;;;;;;;;;;4991958;28;20486;-78
2021/01/31 08:47:43;;;;;;;1999.90;999.90;;;;;;;;;;4991497;28;20026;-80
2021/01/31 08:50:08;;;;;;;1999.90;999.90;;;;;;;;;;4985942;28;20501;-81
2021/01/31 08:52:34;;;;;;;1999.90;999.90;;;;;;;;;;4988082;28;20121;-78
2021/01/31 08:55:05;;;;;;;1999.90;999.90;;;;;;;;;;4985955;28;20030;-78
2021/01/31 08:57:31;;;;;;;1999.90;999.90;;;;;;;;;;4990411;28;20045;-77
2021/01/31 08:59:58;;;;;;;1999.90;999.90;;;;;;;;;;4985639;28;20018;-78
2021/01/31 09:02:25;;;;;;;1999.90;999.90;;;;;;;;;;4985258;28;20509;-76
2021/01/31 09:04:51;;;;;;;1999.90;999.90;;;;;;;;;;4987212;28;20077;-77
2021/01/31 09:07:21;;;;;;;1999.90;999.90;;;;;;;;;;4991377;28;20161;-76
2021/01/31 09:09:51;;;;;;;285.33;260.25;;;;;;;;;;4983097;28;20037;-78
2021/01/31 09:12:18;;;;;;;270.27;246.43;;;;;;;;;;4990188;28;20066;-76
2021/01/31 09:14:44;;;;;;;267.60;244.07;;;;;;;;;;4991320;28;20531;-75
2021/01/31 09:17:11;;;;;;;265.45;241.95;;;;;;;;;;4984359;28;20133;-75
2021/01/31 09:19:37;;;;;;;262.17;239.68;;;;;;;;;;4983624;28;20030;-75
2021/01/31 09:22:07;;;;;;;262.75;240.15;;;;;;;;;;4986240;28;20026;-75
2021/01/31 09:24:39;;;;;;;254.65;231.63;;;;;;;;;;4982103;28;20026;-75
2021/01/31 09:27:07;;;;;;;255.40;233.48;;;;;;;;;;4983534;28;20043;-75
2021/01/31 09:29:33;;;;;;;263.50;240.73;;;;;;;;;;4988102;28;20018;-76
2021/01/31 09:32:08;;;;;;;254.43;232.30;;;;;;;;;;4984350;28;20380;-74
2021/01/31 09:34:33;;;;;;;256.10;233.35;;;;;;;;;;4983148;28;20059;-75
2021/01/31 09:37:09;;;;;;;262.35;239.95;;;;;;;;;;4981577;28;20062;-75
2021/01/31 09:39:37;;;;;;;262.95;239.98;;;;;;;;;;4979629;28;20041;-75
2021/01/31 09:42:03;;;;;;;254.82;232.30;;;;;;;;;;4985208;28;20033;-75
2021/01/31 09:44:30;;;;;;;265.45;243.02;;;;;;;;;;4988815;28;20038;-76
2021/01/31 09:46:55;;;;;;;258.10;235.13;;;;;;;;;;4981241;28;20014;-75
2021/01/31 09:49:25;;;;;;;269.65;245.52;;;;;;;;;;4989873;28;20401;-76
2021/01/31 09:51:51;;;;;;;266.10;243.60;;;;;;;;;;4983872;28;20050;-76
2021/01/31 09:54:17;;;;;;;273.73;249.85;;;;;;;;;;4978027;28;20099;-75
2021/01/31 09:56:47;;;;;;;277.52;254.13;;;;;;;;;;4981711;28;20431;-75
2021/01/31 09:59:32;;;;;;;275.42;252.02;;;;;;;;;;4987085;28;20965;-76
2021/01/31 10:02:03;;;;;;;283.35;258.70;;;;;;;;;;4982909;28;20054;-80
2021/01/31 10:04:28;;;;;;;279.50;255.05;;;;;;;;;;4983523;28;20458;-80
2021/01/31 10:07:14;;;;;;;286.70;261.90;;;;;;;;;;4984425;28;20050;-79
2021/01/31 10:09:41;;;;;;;275.10;249.18;;;;;;;;;;4986622;28;20126;-75
2021/01/31 10:12:22;;;;;;;272.40;248.05;;;;;;;;;;4986766;28;20114;-76
2021/01/31 10:14:49;;;;;;;268.83;244.70;;;;;;;;;;4979689;28;20030;-76
2021/01/31 10:17:16;;;;;;;271.75;248.00;;;;;;;;;;4987590;28;20030;-76
2021/01/31 10:19:42;;;;;;;267.67;244.63;;;;;;;;;;4985647;28;20033;-77
2021/01/31 10:22:14;;;;;;;276.55;252.43;;;;;;;;;;4989784;28;20030;-76
2021/01/31 10:24:45;;;;;;;261.70;239.75;;;;;;;;;;4989546;28;20041;-77
2021/01/31 10:27:22;;;;;;;256.77;234.32;;;;;;;;;;4985557;28;20030;-76
2021/01/31 10:29:48;;;;;;;248.32;227.18;;;;;;;;;;4989337;28;20093;-77
2021/01/31 10:32:26;;;;;;;244.30;224.43;;;;;;;;;;4989563;28;20042;-76
2021/01/31 10:34:52;;;;;;;249.73;228.38;;;;;;;;;;4986838;28;20076;-84
2021/01/31 10:37:30;;;;;;;247.32;226.32;;;;;;;;;;5002813;28;20026;-75
2021/01/31 10:39:56;;;;;;;242.75;222.85;;;;;;;;;;4990248;28;20486;-78
2021/01/31 10:42:21;;;;;;;231.40;212.63;;;;;;;;;;4989066;28;20018;-80
2021/01/31 10:44:47;;;;;;;235.00;214.98;;;;;;;;;;4987900;28;20049;-81
2021/01/31 10:47:13;;;;;;;260.15;236.90;;;;;;;;;;4983934;28;20500;-70
2021/01/31 10:49:38;;;;;;;254.35;233.55;;;;;;;;;;4987388;28;20088;-74
2021/01/31 10:52:04;;;;;;;244.18;224.52;;;;;;;;;;4984942;28;20038;-76
2021/01/31 10:54:29;;;;;;;266.75;245.18;;;;;;;;;;4987086;28;20030;-75
2021/01/31 10:56:55;;;;;;;246.45;226.23;;;;;;;;;;4990216;28;20034;-69
2021/01/31 10:59:20;;;;;;;259.85;238.48;;;;;;;;;;4988325;28;20426;-75
2021/01/31 11:01:47;;;;;;;242.85;224.20;;;;;;;;;;4993447;28;20034;-73
2021/01/31 11:04:13;;;;;;;235.48;216.60;;;;;;;;;;4981038;28;20133;-72
2021/01/31 11:06:38;;;;;;;281.77;259.58;;;;;;;;;;4986415;28;20534;-78
2021/01/31 11:09:04;;;;;;;269.98;248.55;;;;;;;;;;4988333;28;20141;-78
2021/01/31 11:11:29;;;;;;;270.33;248.65;;;;;;;;;;4988191;28;20703;-78
2021/01/31 11:13:55;;;;;;;273.27;251.90;;;;;;;;;;4979180;28;20106;-78
2021/01/31 11:16:20;;;;;;;249.02;227.98;;;;;;;;;;4980440;28;20030;-80
2021/01/31 11:18:46;;;;;;;238.48;220.50;;;;;;;;;;4970215;28;20031;-80
2021/01/31 11:21:15;;;;;;;255.02;234.77;;;;;;;;;;4974063;28;20583;-80
2021/01/31 11:23:40;;;;;;;239.30;220.35;;;;;;;;;;4973104;28;20038;-81
2021/01/31 11:26:05;;;;;;;280.25;257.70;;;;;;;;;;4979881;28;20038;-79
2021/01/31 11:28:31;;;;;;;272.10;249.77;;;;;;;;;;4980173;28;20027;-80
2021/01/31 11:30:57;;;;;;;288.00;264.63;;;;;;;;;;4981232;28;20039;-79
2021/01/31 11:33:23;;;;;;;223.80;205.85;;;;;;;;;;4986381;28;20030;-80
2021/01/31 11:35:48;;;;;;;252.00;232.23;;;;;;;;;;4984800;28;20243;-79
2021/01/31 11:38:14;;;;;;;208.68;192.50;;;;;;;;;;4991003;28;20061;-80
2021/01/31 11:40:39;;;;;;;210.77;194.55;;;;;;;;;;4977732;28;20215;-79
2021/01/31 11:43:05;;;;;;;174.68;160.95;;;;;;;;;;4979573;28;20034;-79
2021/01/31 11:45:30;;;;;;;188.27;174.27;;;;;;;;;;4983651;28;20540;-79
2021/01/31 11:47:56;;;;;;;191.93;177.38;;;;;;;;;;4981999;28;20038;-80
2021/01/31 11:50:22;;;;;;;193.48;179.27;;;;;;;;;;4989071;28;20188;-80
2021/01/31 11:52:48;;;;;;;196.00;181.95;;;;;;;;;;4984995;28;20066;-79
2021/01/31 11:55:14;;;;;;;168.95;156.60;;;;;;;;;;4982995;28;20042;-79
2021/01/31 11:57:40;;;;;;;190.95;177.43;;;;;;;;;;4983466;28;20046;-80
2021/01/31 12:00:06;;;;;;;160.07;148.30;;;;;;;;;;4984916;28;20599;-80
2021/01/31 12:02:37;;;;;;;135.45;125.90;;;;;;;;;;4984845;28;20121;-81
2021/01/31 12:05:03;;;;;;;145.40;135.40;;;;;;;;;;4979513;28;20113;-80
2021/01/31 12:07:28;;;;;;;117.70;109.95;;;;;;;;;;4975876;28;20026;-79
2021/01/31 12:09:54;;;;;;;150.82;140.00;;;;;;;;;;4979958;28;20110;-80
2021/01/31 12:12:19;;;;;;;116.55;108.07;;;;;;;;;;4981961;28;20383;-80
2021/01/31 12:14:45;;;;;;;132.02;123.07;;;;;;;;;;4975060;28;20058;-80
2021/01/31 12:17:10;;;;;;;115.95;108.00;;;;;;;;;;4978650;28;20046;-80
2021/01/31 12:19:36;;;;;;;121.97;113.75;;;;;;;;;;4974603;28;20065;-80
2021/01/31 12:22:01;;;;;;;111.32;103.47;;;;;;;;;;4985930;28;20029;-80
2021/01/31 12:24:27;;;;;;;145.15;135.13;;;;;;;;;;4978326;28;20114;-80
2021/01/31 12:26:52;;;;;;;128.63;119.20;;;;;;;;;;4977916;28;20022;-81
2021/01/31 12:29:18;;;;;;;151.57;140.77;;;;;;;;;;4987166;28;20442;-82
2021/01/31 12:31:43;;;;;;;154.85;144.20;;;;;;;;;;4986675;28;20101;-81
2021/01/31 12:34:09;;;;;;;138.25;129.15;;;;;;;;;;4981476;28;20058;-80
2021/01/31 12:36:35;;;;;;;149.60;138.38;;;;;;;;;;4990797;28;20437;-80
2021/01/31 12:39:00;;;;;;;109.00;101.65;;;;;;;;;;4985536;28;20042;-81
2021/01/31 12:41:26;;;;;;;129.18;120.45;;;;;;;;;;4989822;28;20054;-80
2021/01/31 12:43:51;;;;;;;106.35;99.13;;;;;;;;;;5014925;28;20045;-80
2021/01/31 12:46:17;;;;;;;139.18;129.68;;;;;;;;;;5003997;28;20022;-80
2021/01/31 12:48:42;;;;;;;138.48;128.70;;;;;;;;;;5013559;28;20026;-83
2021/01/31 12:51:08;;;;;;;137.10;127.28;;;;;;;;;;5009143;28;20058;-80
2021/01/31 12:53:33;;;;;;;152.27;141.70;;;;;;;;;;5012105;28;20045;-80
2021/01/31 12:55:59;;;;;;;153.48;142.70;;;;;;;;;;5010927;28;20030;-81
2021/01/31 12:58:24;;;;;;;153.80;143.18;;;;;;;;;;5010170;28;20438;-82
2021/01/31 13:00:50;;;;;;;161.80;150.52;;;;;;;;;;5008373;28;20361;-81
2021/01/31 13:03:18;;;;;;;163.77;152.52;;;;;;;;;;4996847;28;20035;-80
2021/01/31 13:05:43;;;;;;;180.20;166.80;;;;;;;;;;4999565;28;20026;-80
2021/01/31 13:08:09;;;;;;;176.45;164.05;;;;;;;;;;4997209;28;20464;-77
2021/01/31 13:10:35;;;;;;;178.20;165.43;;;;;;;;;;5001050;28;20050;-80
2021/01/31 13:13:00;;;;;;;189.75;175.35;;;;;;;;;;5001967;28;20034;-80
2021/01/31 13:15:26;;;;;;;181.27;168.00;;;;;;;;;;4998513;28;20033;-74
2021/01/31 13:17:52;;;;;;;184.80;171.30;;;;;;;;;;4999140;28;20041;-80
2021/01/31 13:20:18;;;;;;;170.43;158.40;;;;;;;;;;4996755;28;20105;-79
2021/01/31 13:22:43;;;;;;;168.07;155.27;;;;;;;;;;4997546;28;20073;-80
2021/01/31 13:25:09;;;;;;;151.50;140.55;;;;;;;;;;4989171;28;20026;-78
2021/01/31 13:27:35;;;;;;;138.52;128.45;;;;;;;;;;4986076;28;20518;-77
2021/01/31 13:30:02;;;;;;;140.27;130.07;;;;;;;;;;4985251;28;20030;-76
2021/01/31 13:32:28;;;;;;;114.32;106.38;;;;;;;;;;4986868;28;20049;-76
2021/01/31 13:34:53;;;;;;;98.38;91.78;;;;;;;;;;4987531;28;20018;-75
2021/01/31 13:37:19;;;;;;;112.38;105.05;;;;;;;;;;4988124;28;20038;-75
2021/01/31 13:39:44;;;;;;;123.00;114.20;;;;;;;;;;5002545;28;20109;-75
2021/01/31 13:42:09;;;;;;;119.40;111.40;;;;;;;;;;4987393;28;20098;-74
2021/01/31 13:44:35;;;;;;;105.18;98.03;;;;;;;;;;4988689;28;20470;-75
2021/01/31 13:47:00;;;;;;;119.13;110.82;;;;;;;;;;4989630;28;20391;-76
2021/01/31 13:49:26;;;;;;;120.30;112.00;;;;;;;;;;4983322;28;20615;-75
2021/01/31 13:51:51;;;;;;;118.40;109.93;;;;;;;;;;4989140;28;20484;-76
2021/01/31 13:54:17;;;;;;;101.70;94.70;;;;;;;;;;4992667;28;20034;-76
2021/01/31 13:56:43;;;;;;;102.53;95.40;;;;;;;;;;5005357;28;20081;-76
2021/01/31 13:59:08;;;;;;;112.70;105.10;;;;;;;;;;4995309;28;20738;-77